sensor_id;sensor_type;location;lat;lon;timestamp;temperature;humidity
21489;DHT22;10906;45.194;5.684;2023-03-12T06:02:25;10.40;99.90
21489;DHT22;10906;45.194;5.684;2023-03-12T06:05:10;10.50;99.90
21489;DHT22;10906;45.194;5.684;2023-03-12T06:07:54;10.50;99.90
21489;DHT22;10906;45.194;5.684;2023-03-12T06:10:38;10.50;99.90
21489;DHT22;10906;45.194;5.684;2023-03-12T06:13:23;10.50;99.90
21489;DHT22;10906;45.194;5.684;2023-03-12T06:16:17;10.50;99.90
21489;DHT22;10906;45.194;5.684;2023-03-12T06:19:14;10.50;99.90
21489;DHT22;10906;45.194;5.684;2023-03-12T06:24:59;9.90;99.90
21489;DHT22;10906;45.194;5.684;2023-03-12T06:27:44;10.50;99.90
21489;DHT22;10906;45.194;5.684;2023-03-12T06:30:28;10.50;99.90
21489;DHT22;10906;45.194;5.684;2023-03-12T06:33:13;10.50;99.90
21489;DHT22;10906;45.194;5.684;2023-03-12T06:36:03;10.20;99.90
21489;DHT22;10906;45.194;5.684;2023-03-12T06:38:47;10.60;99.90
21489;DHT22;10906;45.194;5.684;2023-03-12T06:41:32;10.60;99.90
21489;DHT22;10906;45.194;5.684;2023-03-12T06:44:17;10.60;99.90
21489;DHT22;10906;45.194;5.684;2023-03-12T06:47:01;10.60;99.90
21489;DHT22;10906;45.194;5.684;2023-03-12T06:49:46;10.70;99.90
21489;DHT22;10906;45.194;5.684;2023-03-12T06:52:48;10.60;99.90
21489;DHT22;10906;45.194;5.684;2023-03-12T06:55:33;10.70;99.90
21489;DHT22;10906;45.194;5.684;2023-03-12T06:58:18;10.70;99.90
21489;DHT22;10906;45.194;5.684;2023-03-12T07:01:02;10.70;99.90
21489;DHT22;10906;45.194;5.684;2023-03-12T07:03:47;10.70;99.90
21489;DHT22;10906;45.194;5.684;2023-03-12T07:06:31;10.70;99.90
21489;DHT22;10906;45.194;5.684;2023-03-12T07:09:17;10.70;99.90
21489;DHT22;10906;45.194;5.684;2023-03-12T07:12:05;10.70;99.90
21489;DHT22;10906;45.194;5.684;2023-03-12T07:15:04;10.60;99.90
21489;DHT22;10906;45.194;5.684;2023-03-12T07:17:49;10.70;99.90
21489;DHT22;10906;45.194;5.684;2023-03-12T07:20:42;10.70;99.90
21489;DHT22;10906;45.194;5.684;2023-03-12T07:23:27;10.70;99.90
21489;DHT22;10906;45.194;5.684;2023-03-12T07:26:12;10.70;99.90
21489;DHT22;10906;45.194;5.684;2023-03-12T07:28:56;10.80;99.90
21489;DHT22;10906;45.194;5.684;2023-03-12T07:31:51;10.80;99.90
21489;DHT22;10906;45.194;5.684;2023-03-12T07:34:36;10.90;99.90
21489;DHT22;10906;45.194;5.684;2023-03-12T07:37:21;10.90;99.90
21489;DHT22;10906;45.194;5.684;2023-03-12T07:40:05;10.90;99.90
21489;DHT22;10906;45.194;5.684;2023-03-12T07:42:51;10.90;99.90
21489;DHT22;10906;45.194;5.684;2023-03-12T07:45:42;11.00;99.90
21489;DHT22;10906;45.194;5.684;2023-03-12T07:48:27;9.70;99.90
21489;DHT22;10906;45.194;5.684;2023-03-12T07:51:11;11.00;99.90
21489;DHT22;10906;45.194;5.684;2023-03-12T07:53:56;11.00;99.90
21489;DHT22;10906;45.194;5.684;2023-03-12T07:56:40;11.00;99.90
21489;DHT22;10906;45.194;5.684;2023-03-12T07:59:25;11.10;99.90
21489;DHT22;10906;45.194;5.684;2023-03-12T08:02:19;11.10;99.90
21489;DHT22;10906;45.194;5.684;2023-03-12T08:05:05;11.10;99.90
21489;DHT22;10906;45.194;5.684;2023-03-12T08:07:52;11.10;99.90
21489;DHT22;10906;45.194;5.684;2023-03-12T08:10:37;11.10;99.90
21489;DHT22;10906;45.194;5.684;2023-03-12T08:13:37;11.20;99.90
21489;DHT22;10906;45.194;5.684;2023-03-12T08:16:21;11.40;99.90
21489;DHT22;10906;45.194;5.684;2023-03-12T08:19:07;11.60;99.90
21489;DHT22;10906;45.194;5.684;2023-03-12T08:22:10;11.70;99.90
21489;DHT22;10906;45.194;5.684;2023-03-12T08:24:57;10.70;99.90
21489;DHT22;10906;45.194;5.684;2023-03-12T08:27:44;12.70;99.90
21489;DHT22;10906;45.194;5.684;2023-03-12T08:30:29;12.60;99.90
21489;DHT22;10906;45.194;5.684;2023-03-12T08:38:20;13.00;99.90
21489;DHT22;10906;45.194;5.684;2023-03-12T08:41:05;13.00;99.90
21489;DHT22;10906;45.194;5.684;2023-03-12T08:43:52;13.00;99.90
21489;DHT22;10906;45.194;5.684;2023-03-12T08:46:37;13.00;99.90
21489;DHT22;10906;45.194;5.684;2023-03-12T08:49:24;12.90;99.90
21489;DHT22;10906;45.194;5.684;2023-03-12T08:52:09;12.90;99.90
21489;DHT22;10906;45.194;5.684;2023-03-12T08:54:53;12.70;99.90
21489;DHT22;10906;45.194;5.684;2023-03-12T08:57:40;12.60;99.90
21489;DHT22;10906;45.194;5.684;2023-03-12T09:00:25;12.70;99.90
21489;DHT22;10906;45.194;5.684;2023-03-12T09:03:09;12.70;99.90
21489;DHT22;10906;45.194;5.684;2023-03-12T09:06:12;12.90;99.90
21489;DHT22;10906;45.194;5.684;2023-03-12T09:08:59;13.20;99.90
21489;DHT22;10906;45.194;5.684;2023-03-12T09:11:47;13.50;99.90
21489;DHT22;10906;45.194;5.684;2023-03-12T09:14:35;13.70;99.90
21489;DHT22;10906;45.194;5.684;2023-03-12T09:17:21;14.00;99.90
21489;DHT22;10906;45.194;5.684;2023-03-12T09:20:12;14.40;99.90
21489;DHT22;10906;45.194;5.684;2023-03-12T09:22:59;14.60;99.90
21489;DHT22;10906;45.194;5.684;2023-03-12T09:25:51;14.80;99.90
21489;DHT22;10906;45.194;5.684;2023-03-12T09:29:00;15.20;99.90
21489;DHT22;10906;45.194;5.684;2023-03-12T09:31:45;14.50;99.90
21489;DHT22;10906;45.194;5.684;2023-03-12T09:34:29;15.30;99.90
21489;DHT22;10906;45.194;5.684;2023-03-12T09:37:14;15.20;99.90
21489;DHT22;10906;45.194;5.684;2023-03-12T09:40:02;15.50;99.90
21489;DHT22;10906;45.194;5.684;2023-03-12T09:42:59;15.60;99.90
21489;DHT22;10906;45.194;5.684;2023-03-12T09:46:36;17.00;99.90
21489;DHT22;10906;45.194;5.684;2023-03-12T09:56:14;15.70;99.90
21489;DHT22;10906;45.194;5.684;2023-03-12T09:59:00;15.80;99.90
21489;DHT22;10906;45.194;5.684;2023-03-12T10:01:59;15.90;99.90
21489;DHT22;10906;45.194;5.684;2023-03-12T10:04:51;15.80;99.90
21489;DHT22;10906;45.194;5.684;2023-03-12T10:07:47;15.70;99.90
21489;DHT22;10906;45.194;5.684;2023-03-12T10:10:36;15.60;99.90
21489;DHT22;10906;45.194;5.684;2023-03-12T10:16:53;15.50;99.90
21489;DHT22;10906;45.194;5.684;2023-03-12T10:26:41;15.00;99.90
21489;DHT22;10906;45.194;5.684;2023-03-12T10:29:39;15.60;99.90
21489;DHT22;10906;45.194;5.684;2023-03-12T10:35:25;16.00;99.90
21489;DHT22;10906;45.194;5.684;2023-03-12T10:38:26;16.40;99.90
21489;DHT22;10906;45.194;5.684;2023-03-12T10:41:21;16.90;99.90
21489;DHT22;10906;45.194;5.684;2023-03-12T10:44:07;17.30;99.90
21489;DHT22;10906;45.194;5.684;2023-03-12T10:47:34;17.60;99.90
21489;DHT22;10906;45.194;5.684;2023-03-12T10:50:22;17.80;99.90
21489;DHT22;10906;45.194;5.684;2023-03-12T10:53:23;18.00;99.90
21489;DHT22;10906;45.194;5.684;2023-03-12T10:56:16;18.20;99.90
21489;DHT22;10906;45.194;5.684;2023-03-12T10:59:00;18.10;99.90
21489;DHT22;10906;45.194;5.684;2023-03-12T11:01:49;18.30;99.90
21489;DHT22;10906;45.194;5.684;2023-03-12T11:04:34;18.40;99.90
21489;DHT22;10906;45.194;5.684;2023-03-12T11:10:22;18.80;99.90
21489;DHT22;10906;45.194;5.684;2023-03-12T11:19:03;18.90;99.90
21489;DHT22;10906;45.194;5.684;2023-03-12T11:22:02;19.10;99.90
21489;DHT22;10906;45.194;5.684;2023-03-12T11:25:04;19.10;99.90
21489;DHT22;10906;45.194;5.684;2023-03-12T11:27:52;19.10;99.90
21489;DHT22;10906;45.194;5.684;2023-03-12T11:30:39;19.30;99.90
21489;DHT22;10906;45.194;5.684;2023-03-12T11:33:26;19.50;99.90
21489;DHT22;10906;45.194;5.684;2023-03-12T11:52:07;19.90;99.90
21489;DHT22;10906;45.194;5.684;2023-03-12T11:55:36;20.20;99.90
21489;DHT22;10906;45.194;5.684;2023-03-12T12:17:00;21.00;98.50
21489;DHT22;10906;45.194;5.684;2023-03-12T12:20:02;21.00;96.80
21489;DHT22;10906;45.194;5.684;2023-03-12T12:26:09;21.20;97.60
21489;DHT22;10906;45.194;5.684;2023-03-12T12:29:04;21.10;96.10
21489;DHT22;10906;45.194;5.684;2023-03-12T12:32:16;21.10;96.30
21489;DHT22;10906;45.194;5.684;2023-03-12T12:35:13;21.20;95.30
21489;DHT22;10906;45.194;5.684;2023-03-12T12:38:38;21.40;96.30
21489;DHT22;10906;45.194;5.684;2023-03-12T12:41:23;21.50;94.60
21489;DHT22;10906;45.194;5.684;2023-03-12T12:44:14;21.60;95.10
21489;DHT22;10906;45.194;5.684;2023-03-12T12:47:02;21.70;94.80
21489;DHT22;10906;45.194;5.684;2023-03-12T12:49:52;21.90;94.30
21489;DHT22;10906;45.194;5.684;2023-03-12T12:52:38;22.00;93.90
21489;DHT22;10906;45.194;5.684;2023-03-12T12:55:39;22.10;93.60
21489;DHT22;10906;45.194;5.684;2023-03-12T12:58:42;22.20;91.10
21489;DHT22;10906;45.194;5.684;2023-03-12T13:01:44;22.30;92.20
21489;DHT22;10906;45.194;5.684;2023-03-12T13:04:35;22.40;92.20
21489;DHT22;10906;45.194;5.684;2023-03-12T13:10:06;22.40;91.80
21489;DHT22;10906;45.194;5.684;2023-03-12T13:12:53;22.60;91.40
21489;DHT22;10906;45.194;5.684;2023-03-12T13:15:40;22.60;91.40
21489;DHT22;10906;45.194;5.684;2023-03-12T13:18:27;22.70;90.90
21489;DHT22;10906;45.194;5.684;2023-03-12T13:21:40;22.80;91.30
21489;DHT22;10906;45.194;5.684;2023-03-12T13:27:24;22.60;89.70
21489;DHT22;10906;45.194;5.684;2023-03-12T13:33:20;22.70;87.10
21489;DHT22;10906;45.194;5.684;2023-03-12T13:36:26;22.60;89.20
21489;DHT22;10906;45.194;5.684;2023-03-12T13:45:27;22.80;83.90
21489;DHT22;10906;45.194;5.684;2023-03-12T13:48:43;22.80;84.70
21489;DHT22;10906;45.194;5.684;2023-03-12T13:55:16;22.90;84.40
21489;DHT22;10906;45.194;5.684;2023-03-12T13:58:09;22.90;84.00
21489;DHT22;10906;45.194;5.684;2023-03-12T14:01:02;23.00;85.30
21489;DHT22;10906;45.194;5.684;2023-03-12T14:03:52;23.10;84.90
21489;DHT22;10906;45.194;5.684;2023-03-12T14:07:06;23.20;84.30
21489;DHT22;10906;45.194;5.684;2023-03-12T14:10:04;23.40;81.60
21489;DHT22;10906;45.194;5.684;2023-03-12T14:16:14;23.80;82.60
21489;DHT22;10906;45.194;5.684;2023-03-12T14:19:02;23.50;78.70
21489;DHT22;10906;45.194;5.684;2023-03-12T14:21:48;23.50;81.30
21489;DHT22;10906;45.194;5.684;2023-03-12T14:24:37;23.40;79.80
21489;DHT22;10906;45.194;5.684;2023-03-12T14:27:25;23.80;80.90
21489;DHT22;10906;45.194;5.684;2023-03-12T14:30:18;24.30;79.50
21489;DHT22;10906;45.194;5.684;2023-03-12T14:33:04;24.70;78.10
21489;DHT22;10906;45.194;5.684;2023-03-12T14:35:56;24.80;77.30
21489;DHT22;10906;45.194;5.684;2023-03-12T14:38:46;24.60;76.30
21489;DHT22;10906;45.194;5.684;2023-03-12T14:41:35;24.40;77.10
21489;DHT22;10906;45.194;5.684;2023-03-12T14:44:24;24.40;76.30
21489;DHT22;10906;45.194;5.684;2023-03-12T14:47:12;24.00;75.60
21489;DHT22;10906;45.194;5.684;2023-03-12T14:50:00;23.60;77.10
21489;DHT22;10906;45.194;5.684;2023-03-12T14:52:44;23.30;76.80
21489;DHT22;10906;45.194;5.684;2023-03-12T14:55:29;23.20;77.00
21489;DHT22;10906;45.194;5.684;2023-03-12T14:58:18;23.20;77.90
21489;DHT22;10906;45.194;5.684;2023-03-12T15:01:05;23.70;76.00
21489;DHT22;10906;45.194;5.684;2023-03-12T15:03:59;23.70;75.30
21489;DHT22;10906;45.194;5.684;2023-03-12T15:06:49;23.90;74.90
21489;DHT22;10906;45.194;5.684;2023-03-12T15:09:36;24.20;74.30
21489;DHT22;10906;45.194;5.684;2023-03-12T15:12:23;24.00;72.80
21489;DHT22;10906;45.194;5.684;2023-03-12T15:15:15;23.90;73.10
21489;DHT22;10906;45.194;5.684;2023-03-12T15:18:10;23.70;72.00
21489;DHT22;10906;45.194;5.684;2023-03-12T15:20:56;23.00;72.40
21489;DHT22;10906;45.194;5.684;2023-03-12T15:23:43;22.80;73.30
21489;DHT22;10906;45.194;5.684;2023-03-12T15:26:30;22.90;73.80
21489;DHT22;10906;45.194;5.684;2023-03-12T15:29:27;23.30;73.30
21489;DHT22;10906;45.194;5.684;2023-03-12T15:32:13;23.90;71.90
21489;DHT22;10906;45.194;5.684;2023-03-12T15:34:58;23.80;71.20
21489;DHT22;10906;45.194;5.684;2023-03-12T15:37:49;23.60;71.40
21489;DHT22;10906;45.194;5.684;2023-03-12T15:40:36;23.70;71.70
21489;DHT22;10906;45.194;5.684;2023-03-12T15:43:23;23.90;71.10
21489;DHT22;10906;45.194;5.684;2023-03-12T15:46:10;24.20;69.70
21489;DHT22;10906;45.194;5.684;2023-03-12T15:48:57;24.40;69.60
21489;DHT22;10906;45.194;5.684;2023-03-12T15:51:55;24.50;69.10
21489;DHT22;10906;45.194;5.684;2023-03-12T15:54:40;24.50;68.50
21489;DHT22;10906;45.194;5.684;2023-03-12T15:57:25;24.30;68.20
21489;DHT22;10906;45.194;5.684;2023-03-12T16:03:02;24.60;67.00
21489;DHT22;10906;45.194;5.684;2023-03-12T16:05:52;24.90;67.30
21489;DHT22;10906;45.194;5.684;2023-03-12T16:08:55;25.00;67.20
21489;DHT22;10906;45.194;5.684;2023-03-12T16:11:40;24.40;65.30
21489;DHT22;10906;45.194;5.684;2023-03-12T16:14:30;22.90;68.20
21489;DHT22;10906;45.194;5.684;2023-03-12T16:17:16;21.70;70.30
21489;DHT22;10906;45.194;5.684;2023-03-12T16:23:02;20.10;74.30
21489;DHT22;10906;45.194;5.684;2023-03-12T16:25:50;19.70;75.90
21489;DHT22;10906;45.194;5.684;2023-03-12T16:28:35;19.40;77.50
21489;DHT22;10906;45.194;5.684;2023-03-12T16:31:20;19.20;77.90
21489;DHT22;10906;45.194;5.684;2023-03-12T16:34:04;18.90;79.30
21489;DHT22;10906;45.194;5.684;2023-03-12T16:36:48;18.80;79.70
21489;DHT22;10906;45.194;5.684;2023-03-12T16:39:32;18.60;80.10
21489;DHT22;10906;45.194;5.684;2023-03-12T16:42:18;18.50;80.80
21489;DHT22;10906;45.194;5.684;2023-03-12T16:45:06;18.30;81.40
21489;DHT22;10906;45.194;5.684;2023-03-12T16:47:54;18.20;82.30
21489;DHT22;10906;45.194;5.684;2023-03-12T16:50:46;18.10;82.20
21489;DHT22;10906;45.194;5.684;2023-03-12T16:53:31;18.00;82.60
21489;DHT22;10906;45.194;5.684;2023-03-12T16:56:21;17.90;83.70
21489;DHT22;10906;45.194;5.684;2023-03-12T16:59:10;17.80;83.30
21489;DHT22;10906;45.194;5.684;2023-03-12T17:01:56;17.70;83.50
21489;DHT22;10906;45.194;5.684;2023-03-12T17:04:40;17.50;84.10
21489;DHT22;10906;45.194;5.684;2023-03-12T17:07:25;17.40;84.90
21489;DHT22;10906;45.194;5.684;2023-03-12T17:10:10;17.30;85.30
21489;DHT22;10906;45.194;5.684;2023-03-12T17:13:05;17.20;86.90
21489;DHT22;10906;45.194;5.684;2023-03-12T17:15:49;17.00;87.90
21489;DHT22;10906;45.194;5.684;2023-03-12T17:18:43;16.90;87.40
21489;DHT22;10906;45.194;5.684;2023-03-12T17:21:28;16.90;88.50
21489;DHT22;10906;45.194;5.684;2023-03-12T17:24:13;16.70;89.70
21489;DHT22;10906;45.194;5.684;2023-03-12T17:26:57;16.60;89.30
21489;DHT22;10906;45.194;5.684;2023-03-12T17:29:42;16.50;89.80
21489;DHT22;10906;45.194;5.684;2023-03-12T17:32:29;16.40;90.50
21489;DHT22;10906;45.194;5.684;2023-03-12T17:39:25;16.00;90.60
21489;DHT22;10906;45.194;5.684;2023-03-12T17:42:09;14.90;90.60
21489;DHT22;10906;45.194;5.684;2023-03-12T17:44:54;16.00;91.70
21489;DHT22;10906;45.194;5.684;2023-03-12T17:47:38;15.90;91.50
21489;DHT22;10906;45.194;5.684;2023-03-12T17:50:23;15.90;92.10
21489;DHT22;10906;45.194;5.684;2023-03-12T17:53:07;15.80;92.20
21489;DHT22;10906;45.194;5.684;2023-03-12T17:55:52;15.70;92.20
21489;DHT22;10906;45.194;5.684;2023-03-12T17:58:37;15.60;92.70
21489;DHT22;10906;45.194;5.684;2023-03-12T18:01:22;15.50;93.00
21489;DHT22;10906;45.194;5.684;2023-03-12T18:04:07;15.40;93.00
21489;DHT22;10906;45.194;5.684;2023-03-12T18:06:51;15.40;92.70
21489;DHT22;10906;45.194;5.684;2023-03-12T18:09:36;15.30;93.10
21489;DHT22;10906;45.194;5.684;2023-03-12T18:12:21;15.20;93.10
21489;DHT22;10906;45.194;5.684;2023-03-12T18:15:07;15.10;93.40
21489;DHT22;10906;45.194;5.684;2023-03-12T18:17:52;15.10;93.70
21489;DHT22;10906;45.194;5.684;2023-03-12T18:20:39;15.00;93.90
21489;DHT22;10906;45.194;5.684;2023-03-12T18:23:23;14.90;94.00
21489;DHT22;10906;45.194;5.684;2023-03-12T18:26:09;14.90;94.40
21489;DHT22;10906;45.194;5.684;2023-03-12T18:28:53;14.90;94.90
21489;DHT22;10906;45.194;5.684;2023-03-12T18:31:38;14.80;94.90
21489;DHT22;10906;45.194;5.684;2023-03-12T18:34:22;14.70;95.20
21489;DHT22;10906;45.194;5.684;2023-03-12T18:37:07;14.60;95.70
21489;DHT22;10906;45.194;5.684;2023-03-12T18:39:55;14.50;95.40
21489;DHT22;10906;45.194;5.684;2023-03-12T18:42:39;14.40;95.70
21489;DHT22;10906;45.194;5.684;2023-03-12T18:45:27;14.40;96.40
21489;DHT22;10906;45.194;5.684;2023-03-12T18:48:29;14.40;96.80
21489;DHT22;10906;45.194;5.684;2023-03-12T18:51:23;14.40;97.10
21489;DHT22;10906;45.194;5.684;2023-03-12T18:54:08;14.30;96.50
21489;DHT22;10906;45.194;5.684;2023-03-12T18:56:52;14.20;96.80
21489;DHT22;10906;45.194;5.684;2023-03-12T18:59:37;14.10;97.00
21489;DHT22;10906;45.194;5.684;2023-03-12T19:02:22;14.10;97.40
21489;DHT22;10906;45.194;5.684;2023-03-12T19:05:07;14.00;97.20
21489;DHT22;10906;45.194;5.684;2023-03-12T19:07:53;13.90;97.50
21489;DHT22;10906;45.194;5.684;2023-03-12T19:18:06;14.10;98.60
21489;DHT22;10906;45.194;5.684;2023-03-12T19:20:52;12.20;97.60
21489;DHT22;10906;45.194;5.684;2023-03-12T19:23:37;13.60;98.50
21489;DHT22;10906;45.194;5.684;2023-03-12T19:26:21;13.60;98.50
21489;DHT22;10906;45.194;5.684;2023-03-12T19:29:06;13.50;99.20
21489;DHT22;10906;45.194;5.684;2023-03-12T19:31:54;13.50;98.60
21489;DHT22;10906;45.194;5.684;2023-03-12T19:34:38;13.50;98.70
21489;DHT22;10906;45.194;5.684;2023-03-12T19:37:23;13.50;99.00
21489;DHT22;10906;45.194;5.684;2023-03-12T19:40:08;13.50;99.00
21489;DHT22;10906;45.194;5.684;2023-03-12T19:43:32;13.40;99.00
21489;DHT22;10906;45.194;5.684;2023-03-12T19:46:16;13.20;99.30
21489;DHT22;10906;45.194;5.684;2023-03-12T19:49:01;13.20;99.50
21489;DHT22;10906;45.194;5.684;2023-03-12T19:51:45;13.20;99.90
21489;DHT22;10906;45.194;5.684;2023-03-12T19:54:36;13.20;99.90
21489;DHT22;10906;45.194;5.684;2023-03-12T19:57:20;13.10;99.70
21489;DHT22;10906;45.194;5.684;2023-03-12T20:00:07;13.00;99.90
21489;DHT22;10906;45.194;5.684;2023-03-12T20:03:02;13.00;99.60
21489;DHT22;10906;45.194;5.684;2023-03-12T20:05:48;13.00;99.90
21489;DHT22;10906;45.194;5.684;2023-03-12T20:08:33;13.00;99.90
21489;DHT22;10906;45.194;5.684;2023-03-12T20:11:18;12.90;99.80
21489;DHT22;10906;45.194;5.684;2023-03-12T20:14:06;12.60;99.80
21489;DHT22;10906;45.194;5.684;2023-03-12T20:16:50;12.80;99.90
21489;DHT22;10906;45.194;5.684;2023-03-12T20:19:34;12.70;99.70
21489;DHT22;10906;45.194;5.684;2023-03-12T20:22:19;12.70;99.90
21489;DHT22;10906;45.194;5.684;2023-03-12T20:25:04;12.70;99.90
21489;DHT22;10906;45.194;5.684;2023-03-12T20:27:49;12.70;99.90
21489;DHT22;10906;45.194;5.684;2023-03-12T20:30:37;12.60;99.90
21489;DHT22;10906;45.194;5.684;2023-03-12T20:33:24;12.60;99.90
21489;DHT22;10906;45.194;5.684;2023-03-12T20:36:13;12.60;99.90
21489;DHT22;10906;45.194;5.684;2023-03-12T20:38:57;12.50;99.90
21489;DHT22;10906;45.194;5.684;2023-03-12T20:41:42;12.50;99.90
21489;DHT22;10906;45.194;5.684;2023-03-12T20:44:26;12.40;99.90
21489;DHT22;10906;45.194;5.684;2023-03-12T20:47:11;12.40;99.90
21489;DHT22;10906;45.194;5.684;2023-03-12T20:49:55;12.30;99.90
21489;DHT22;10906;45.194;5.684;2023-03-12T20:52:42;12.30;99.90
21489;DHT22;10906;45.194;5.684;2023-03-12T20:55:27;12.30;99.90
21489;DHT22;10906;45.194;5.684;2023-03-12T20:58:17;12.30;99.90
21489;DHT22;10906;45.194;5.684;2023-03-12T21:01:04;12.20;99.90
21489;DHT22;10906;45.194;5.684;2023-03-12T21:03:48;12.20;99.90
21489;DHT22;10906;45.194;5.684;2023-03-12T21:06:33;12.10;99.90
21489;DHT22;10906;45.194;5.684;2023-03-12T21:09:17;12.10;99.90
21489;DHT22;10906;45.194;5.684;2023-03-12T21:12:02;12.00;99.90
21489;DHT22;10906;45.194;5.684;2023-03-12T21:14:46;12.00;99.90
21489;DHT22;10906;45.194;5.684;2023-03-12T21:17:35;12.00;99.90
21489;DHT22;10906;45.194;5.684;2023-03-12T21:20:20;11.90;99.90
21489;DHT22;10906;45.194;5.684;2023-03-12T21:23:05;11.90;99.90
21489;DHT22;10906;45.194;5.684;2023-03-12T21:25:59;11.80;99.90
21489;DHT22;10906;45.194;5.684;2023-03-12T21:28:45;11.80;99.90
21489;DHT22;10906;45.194;5.684;2023-03-12T21:31:29;11.70;99.90
21489;DHT22;10906;45.194;5.684;2023-03-12T21:34:14;11.70;99.90
21489;DHT22;10906;45.194;5.684;2023-03-12T21:36:59;11.70;99.90
21489;DHT22;10906;45.194;5.684;2023-03-12T21:39:43;11.70;99.90
21489;DHT22;10906;45.194;5.684;2023-03-12T21:42:28;13.10;99.90
21489;DHT22;10906;45.194;5.684;2023-03-12T21:45:13;11.70;99.90
21489;DHT22;10906;45.194;5.684;2023-03-12T21:47:58;11.60;99.90
21489;DHT22;10906;45.194;5.684;2023-03-12T21:50:42;11.60;99.90
21489;DHT22;10906;45.194;5.684;2023-03-12T21:53:27;11.60;99.90
21489;DHT22;10906;45.194;5.684;2023-03-12T21:56:11;11.60;99.90
21489;DHT22;10906;45.194;5.684;2023-03-12T21:58:56;11.60;99.90
21489;DHT22;10906;45.194;5.684;2023-03-12T22:01:41;11.60;99.90
21489;DHT22;10906;45.194;5.684;2023-03-12T22:04:27;11.60;99.90
21489;DHT22;10906;45.194;5.684;2023-03-12T22:07:11;11.60;99.90
21489;DHT22;10906;45.194;5.684;2023-03-12T22:09:56;11.60;99.90
21489;DHT22;10906;45.194;5.684;2023-03-12T22:12:41;11.60;99.90
21489;DHT22;10906;45.194;5.684;2023-03-12T22:15:25;11.60;99.90
21489;DHT22;10906;45.194;5.684;2023-03-12T22:18:11;11.60;99.90
21489;DHT22;10906;45.194;5.684;2023-03-12T22:21:00;11.60;99.90
21489;DHT22;10906;45.194;5.684;2023-03-12T22:23:47;11.60;99.90
21489;DHT22;10906;45.194;5.684;2023-03-12T22:26:34;11.60;99.90
21489;DHT22;10906;45.194;5.684;2023-03-12T22:29:19;11.60;99.90
21489;DHT22;10906;45.194;5.684;2023-03-12T22:32:03;11.60;99.90
21489;DHT22;10906;45.194;5.684;2023-03-12T22:34:48;11.60;99.90
21489;DHT22;10906;45.194;5.684;2023-03-12T22:37:33;11.60;99.90
21489;DHT22;10906;45.194;5.684;2023-03-12T22:40:20;11.60;99.90
21489;DHT22;10906;45.194;5.684;2023-03-12T22:43:05;11.50;99.90
21489;DHT22;10906;45.194;5.684;2023-03-12T22:45:53;11.50;99.90
21489;DHT22;10906;45.194;5.684;2023-03-12T22:48:37;11.50;99.90
21489;DHT22;10906;45.194;5.684;2023-03-12T22:51:22;11.50;99.90
21489;DHT22;10906;45.194;5.684;2023-03-12T22:54:07;11.40;99.90
21489;DHT22;10906;45.194;5.684;2023-03-12T22:56:51;11.40;99.90
21489;DHT22;10906;45.194;5.684;2023-03-12T22:59:36;11.50;99.90
